sensor_id;sensor_type;location;lat;lon;timestamp;temperature;humidity
36292;DHT22;22327;51.208;6.418;2023-11-19T00:01:25;15.70;99.90
36292;DHT22;22327;51.208;6.418;2023-11-19T00:04:25;15.70;99.90
36292;DHT22;22327;51.208;6.418;2023-11-19T00:07:26;15.80;99.90
36292;DHT22;22327;51.208;6.418;2023-11-19T00:10:26;15.80;99.90
36292;DHT22;22327;51.208;6.418;2023-11-19T00:13:27;15.80;99.90
36292;DHT22;22327;51.208;6.418;2023-11-19T00:16:27;15.90;99.90
36292;DHT22;22327;51.208;6.418;2023-11-19T00:19:28;15.90;99.90
36292;DHT22;22327;51.208;6.418;2023-11-19T00:22:29;15.90;99.90
36292;DHT22;22327;51.208;6.418;2023-11-19T00:25:29;16.00;99.90
36292;DHT22;22327;51.208;6.418;2023-11-19T00:28:30;16.00;99.90
36292;DHT22;22327;51.208;6.418;2023-11-19T00:31:30;16.10;99.90
36292;DHT22;22327;51.208;6.418;2023-11-19T00:34:31;16.10;99.90
36292;DHT22;22327;51.208;6.418;2023-11-19T00:37:31;16.10;99.90
36292;DHT22;22327;51.208;6.418;2023-11-19T00:40:32;16.20;99.90
36292;DHT22;22327;51.208;6.418;2023-11-19T00:43:32;16.20;99.90
36292;DHT22;22327;51.208;6.418;2023-11-19T00:46:33;16.10;99.90
36292;DHT22;22327;51.208;6.418;2023-11-19T00:49:34;16.10;99.90
36292;DHT22;22327;51.208;6.418;2023-11-19T00:52:35;16.10;99.90
36292;DHT22;22327;51.208;6.418;2023-11-19T00:55:37;16.10;99.90
36292;DHT22;22327;51.208;6.418;2023-11-19T00:58:37;16.10;99.90
36292;DHT22;22327;51.208;6.418;2023-11-19T01:01:38;16.10;99.90
36292;DHT22;22327;51.208;6.418;2023-11-19T01:04:38;16.10;99.90
36292;DHT22;22327;51.208;6.418;2023-11-19T01:07:39;16.10;99.90
36292;DHT22;22327;51.208;6.418;2023-11-19T01:10:40;16.10;99.90
36292;DHT22;22327;51.208;6.418;2023-11-19T01:13:40;16.20;99.90
36292;DHT22;22327;51.208;6.418;2023-11-19T01:16:41;16.20;99.90
36292;DHT22;22327;51.208;6.418;2023-11-19T01:19:41;16.20;99.90
36292;DHT22;22327;51.208;6.418;2023-11-19T01:22:42;16.20;99.90
36292;DHT22;22327;51.208;6.418;2023-11-19T01:25:42;16.20;99.90
36292;DHT22;22327;51.208;6.418;2023-11-19T01:28:43;16.20;99.90
36292;DHT22;22327;51.208;6.418;2023-11-19T01:31:46;16.20;99.90
36292;DHT22;22327;51.208;6.418;2023-11-19T01:34:47;16.20;99.90
36292;DHT22;22327;51.208;6.418;2023-11-19T01:37:48;16.20;99.90
36292;DHT22;22327;51.208;6.418;2023-11-19T01:40:48;16.20;99.90
36292;DHT22;22327;51.208;6.418;2023-11-19T01:43:49;16.10;99.90
36292;DHT22;22327;51.208;6.418;2023-11-19T01:46:49;16.10;99.90
36292;DHT22;22327;51.208;6.418;2023-11-19T01:49:51;16.20;99.90
36292;DHT22;22327;51.208;6.418;2023-11-19T01:52:54;16.20;99.90
36292;DHT22;22327;51.208;6.418;2023-11-19T01:55:57;16.30;99.90
36292;DHT22;22327;51.208;6.418;2023-11-19T01:58:58;16.30;99.90
36292;DHT22;22327;51.208;6.418;2023-11-19T02:01:59;16.30;99.90
36292;DHT22;22327;51.208;6.418;2023-11-19T02:05:00;16.30;99.90
36292;DHT22;22327;51.208;6.418;2023-11-19T02:08:01;16.30;99.90
36292;DHT22;22327;51.208;6.418;2023-11-19T02:11:02;16.30;99.90
36292;DHT22;22327;51.208;6.418;2023-11-19T02:14:03;16.30;99.90
36292;DHT22;22327;51.208;6.418;2023-11-19T02:17:05;16.30;99.90
36292;DHT22;22327;51.208;6.418;2023-11-19T02:20:06;16.40;99.90
36292;DHT22;22327;51.208;6.418;2023-11-19T02:23:09;16.40;99.90
36292;DHT22;22327;51.208;6.418;2023-11-19T02:26:18;16.40;99.90
36292;DHT22;22327;51.208;6.418;2023-11-19T02:29:23;16.40;99.90
36292;DHT22;22327;51.208;6.418;2023-11-19T02:32:24;16.30;99.90
36292;DHT22;22327;51.208;6.418;2023-11-19T02:35:27;16.30;99.90
36292;DHT22;22327;51.208;6.418;2023-11-19T02:38:28;16.20;99.90
36292;DHT22;22327;51.208;6.418;2023-11-19T02:41:28;16.20;99.90
36292;DHT22;22327;51.208;6.418;2023-11-19T02:44:29;16.20;99.90
36292;DHT22;22327;51.208;6.418;2023-11-19T02:47:30;16.10;99.90
36292;DHT22;22327;51.208;6.418;2023-11-19T02:50:31;16.20;99.90
36292;DHT22;22327;51.208;6.418;2023-11-19T02:53:32;16.20;99.90
36292;DHT22;22327;51.208;6.418;2023-11-19T02:56:32;16.20;99.90
36292;DHT22;22327;51.208;6.418;2023-11-19T02:59:38;16.20;99.90
36292;DHT22;22327;51.208;6.418;2023-11-19T03:02:40;16.20;99.90
36292;DHT22;22327;51.208;6.418;2023-11-19T03:05:47;16.30;99.90
36292;DHT22;22327;51.208;6.418;2023-11-19T03:08:47;16.40;99.90
36292;DHT22;22327;51.208;6.418;2023-11-19T03:11:48;16.40;99.90
36292;DHT22;22327;51.208;6.418;2023-11-19T03:14:49;16.40;99.90
36292;DHT22;22327;51.208;6.418;2023-11-19T03:17:51;16.40;99.90
36292;DHT22;22327;51.208;6.418;2023-11-19T03:20:52;16.40;99.90
36292;DHT22;22327;51.208;6.418;2023-11-19T03:23:52;16.40;99.90
36292;DHT22;22327;51.208;6.418;2023-11-19T03:26:53;16.30;99.90
36292;DHT22;22327;51.208;6.418;2023-11-19T03:29:53;16.30;99.90
36292;DHT22;22327;51.208;6.418;2023-11-19T03:32:57;16.30;99.90
36292;DHT22;22327;51.208;6.418;2023-11-19T03:35:58;16.20;99.90
36292;DHT22;22327;51.208;6.418;2023-11-19T03:38:58;16.20;99.90
36292;DHT22;22327;51.208;6.418;2023-11-19T03:41:59;16.10;99.90
36292;DHT22;22327;51.208;6.418;2023-11-19T03:45:00;16.00;99.90
36292;DHT22;22327;51.208;6.418;2023-11-19T03:48:00;16.00;99.90
36292;DHT22;22327;51.208;6.418;2023-11-19T03:51:01;15.90;99.90
36292;DHT22;22327;51.208;6.418;2023-11-19T03:54:02;15.90;99.90
36292;DHT22;22327;51.208;6.418;2023-11-19T03:57:03;15.90;99.90
36292;DHT22;22327;51.208;6.418;2023-11-19T04:00:04;15.80;99.90
36292;DHT22;22327;51.208;6.418;2023-11-19T04:03:19;15.70;99.90
36292;DHT22;22327;51.208;6.418;2023-11-19T04:06:20;15.70;99.90
36292;DHT22;22327;51.208;6.418;2023-11-19T04:09:21;15.70;99.90
36292;DHT22;22327;51.208;6.418;2023-11-19T04:12:22;15.60;99.90
36292;DHT22;22327;51.208;6.418;2023-11-19T04:15:23;15.70;99.90
36292;DHT22;22327;51.208;6.418;2023-11-19T04:18:24;15.70;99.90
36292;DHT22;22327;51.208;6.418;2023-11-19T04:21:25;15.60;99.90
36292;DHT22;22327;51.208;6.418;2023-11-19T04:24:25;15.60;99.90
36292;DHT22;22327;51.208;6.418;2023-11-19T04:27:26;15.50;99.90
36292;DHT22;22327;51.208;6.418;2023-11-19T04:30:26;15.50;99.90
36292;DHT22;22327;51.208;6.418;2023-11-19T04:33:27;15.40;99.90
36292;DHT22;22327;51.208;6.418;2023-11-19T04:36:27;15.40;99.90
36292;DHT22;22327;51.208;6.418;2023-11-19T04:39:30;15.40;99.90
36292;DHT22;22327;51.208;6.418;2023-11-19T04:42:30;15.40;99.90
36292;DHT22;22327;51.208;6.418;2023-11-19T04:45:32;15.40;99.90
36292;DHT22;22327;51.208;6.418;2023-11-19T04:48:32;15.50;99.90
36292;DHT22;22327;51.208;6.418;2023-11-19T04:51:40;15.50;99.90
36292;DHT22;22327;51.208;6.418;2023-11-19T04:54:42;15.50;99.90
36292;DHT22;22327;51.208;6.418;2023-11-19T04:57:43;15.50;99.90
36292;DHT22;22327;51.208;6.418;2023-11-19T05:00:44;15.50;99.90
36292;DHT22;22327;51.208;6.418;2023-11-19T05:03:45;15.40;99.90
36292;DHT22;22327;51.208;6.418;2023-11-19T05:06:46;15.40;99.90
36292;DHT22;22327;51.208;6.418;2023-11-19T05:09:46;15.30;99.90
36292;DHT22;22327;51.208;6.418;2023-11-19T05:12:47;15.40;99.90
36292;DHT22;22327;51.208;6.418;2023-11-19T05:15:47;15.40;99.90
36292;DHT22;22327;51.208;6.418;2023-11-19T05:18:48;15.40;99.90
36292;DHT22;22327;51.208;6.418;2023-11-19T05:21:48;15.40;99.90
36292;DHT22;22327;51.208;6.418;2023-11-19T05:24:52;15.40;99.90
36292;DHT22;22327;51.208;6.418;2023-11-19T05:27:53;15.40;99.90
36292;DHT22;22327;51.208;6.418;2023-11-19T05:30:54;15.50;99.90
36292;DHT22;22327;51.208;6.418;2023-11-19T05:33:55;15.50;99.90
36292;DHT22;22327;51.208;6.418;2023-11-19T05:36:56;15.60;99.90
36292;DHT22;22327;51.208;6.418;2023-11-19T05:39:57;15.60;99.90
36292;DHT22;22327;51.208;6.418;2023-11-19T05:43:00;15.70;99.90
36292;DHT22;22327;51.208;6.418;2023-11-19T05:46:01;15.60;99.90
36292;DHT22;22327;51.208;6.418;2023-11-19T05:49:04;15.60;99.90
36292;DHT22;22327;51.208;6.418;2023-11-19T05:52:04;15.50;99.90
36292;DHT22;22327;51.208;6.418;2023-11-19T05:55:07;15.60;99.90
36292;DHT22;22327;51.208;6.418;2023-11-19T05:58:10;15.50;99.90
36292;DHT22;22327;51.208;6.418;2023-11-19T06:01:14;15.50;99.90
36292;DHT22;22327;51.208;6.418;2023-11-19T06:04:15;15.60;99.90
36292;DHT22;22327;51.208;6.418;2023-11-19T06:07:16;15.50;99.90
36292;DHT22;22327;51.208;6.418;2023-11-19T06:10:17;15.40;99.90
36292;DHT22;22327;51.208;6.418;2023-11-19T06:13:17;15.40;99.90
36292;DHT22;22327;51.208;6.418;2023-11-19T06:16:18;15.30;99.90
36292;DHT22;22327;51.208;6.418;2023-11-19T06:19:19;15.30;99.90
36292;DHT22;22327;51.208;6.418;2023-11-19T06:22:19;15.30;99.90
36292;DHT22;22327;51.208;6.418;2023-11-19T06:25:19;15.30;99.90
36292;DHT22;22327;51.208;6.418;2023-11-19T06:28:20;15.30;99.90
36292;DHT22;22327;51.208;6.418;2023-11-19T06:31:21;15.20;99.90
36292;DHT22;22327;51.208;6.418;2023-11-19T06:34:21;15.20;99.90
36292;DHT22;22327;51.208;6.418;2023-11-19T06:37:22;15.10;99.90
36292;DHT22;22327;51.208;6.418;2023-11-19T06:40:23;15.10;99.90
36292;DHT22;22327;51.208;6.418;2023-11-19T06:43:23;15.00;99.90
36292;DHT22;22327;51.208;6.418;2023-11-19T06:46:24;15.00;99.90
36292;DHT22;22327;51.208;6.418;2023-11-19T06:49:24;15.10;99.90
36292;DHT22;22327;51.208;6.418;2023-11-19T06:52:25;15.00;99.90
36292;DHT22;22327;51.208;6.418;2023-11-19T06:55:26;15.10;99.90
36292;DHT22;22327;51.208;6.418;2023-11-19T06:58:27;15.00;99.90
36292;DHT22;22327;51.208;6.418;2023-11-19T07:01:27;15.00;99.90
36292;DHT22;22327;51.208;6.418;2023-11-19T07:04:28;14.90;99.90
36292;DHT22;22327;51.208;6.418;2023-11-19T07:07:29;14.90;99.90
36292;DHT22;22327;51.208;6.418;2023-11-19T07:10:30;14.90;99.90
36292;DHT22;22327;51.208;6.418;2023-11-19T07:13:31;14.80;99.90
36292;DHT22;22327;51.208;6.418;2023-11-19T07:16:35;14.80;99.90
36292;DHT22;22327;51.208;6.418;2023-11-19T07:19:37;14.90;99.90
36292;DHT22;22327;51.208;6.418;2023-11-19T07:22:38;14.80;99.90
36292;DHT22;22327;51.208;6.418;2023-11-19T07:25:39;14.90;99.90
36292;DHT22;22327;51.208;6.418;2023-11-19T07:28:39;14.90;99.90
36292;DHT22;22327;51.208;6.418;2023-11-19T07:31:40;15.00;99.90
36292;DHT22;22327;51.208;6.418;2023-11-19T07:34:40;15.00;99.90
36292;DHT22;22327;51.208;6.418;2023-11-19T07:37:44;15.00;99.90
36292;DHT22;22327;51.208;6.418;2023-11-19T07:40:46;15.10;99.90
36292;DHT22;22327;51.208;6.418;2023-11-19T07:43:47;15.10;99.90
36292;DHT22;22327;51.208;6.418;2023-11-19T07:46:48;15.20;99.90
36292;DHT22;22327;51.208;6.418;2023-11-19T07:49:50;15.20;99.90
36292;DHT22;22327;51.208;6.418;2023-11-19T07:52:50;15.20;99.90
36292;DHT22;22327;51.208;6.418;2023-11-19T07:55:51;15.30;99.90
36292;DHT22;22327;51.208;6.418;2023-11-19T07:58:51;15.30;99.90
36292;DHT22;22327;51.208;6.418;2023-11-19T08:01:53;15.40;99.90
36292;DHT22;22327;51.208;6.418;2023-11-19T08:04:53;15.40;99.90
36292;DHT22;22327;51.208;6.418;2023-11-19T08:07:55;15.40;99.90
36292;DHT22;22327;51.208;6.418;2023-11-19T08:10:56;15.50;99.90
36292;DHT22;22327;51.208;6.418;2023-11-19T08:13:57;15.50;99.90
36292;DHT22;22327;51.208;6.418;2023-11-19T08:16:57;15.60;99.90
36292;DHT22;22327;51.208;6.418;2023-11-19T08:19:59;15.60;99.90
36292;DHT22;22327;51.208;6.418;2023-11-19T08:23:02;15.70;99.90
36292;DHT22;22327;51.208;6.418;2023-11-19T08:26:04;15.80;99.90
36292;DHT22;22327;51.208;6.418;2023-11-19T08:29:05;15.90;99.90
36292;DHT22;22327;51.208;6.418;2023-11-19T08:32:06;16.00;99.90
36292;DHT22;22327;51.208;6.418;2023-11-19T08:35:07;16.10;99.90
36292;DHT22;22327;51.208;6.418;2023-11-19T08:38:08;16.20;99.90
36292;DHT22;22327;51.208;6.418;2023-11-19T08:41:08;16.30;99.90
36292;DHT22;22327;51.208;6.418;2023-11-19T08:44:09;16.50;99.90
36292;DHT22;22327;51.208;6.418;2023-11-19T08:47:11;16.50;99.90
36292;DHT22;22327;51.208;6.418;2023-11-19T08:50:12;16.70;99.90
36292;DHT22;22327;51.208;6.418;2023-11-19T08:53:12;17.00;99.90
36292;DHT22;22327;51.208;6.418;2023-11-19T08:56:13;17.20;99.90
36292;DHT22;22327;51.208;6.418;2023-11-19T08:59:14;17.40;99.90
36292;DHT22;22327;51.208;6.418;2023-11-19T09:02:15;17.40;99.90
36292;DHT22;22327;51.208;6.418;2023-11-19T09:05:16;17.50;99.90
36292;DHT22;22327;51.208;6.418;2023-11-19T09:08:17;17.70;99.90
36292;DHT22;22327;51.208;6.418;2023-11-19T09:11:18;17.90;99.90
36292;DHT22;22327;51.208;6.418;2023-11-19T09:14:18;18.00;99.90
36292;DHT22;22327;51.208;6.418;2023-11-19T09:17:19;18.10;99.90
36292;DHT22;22327;51.208;6.418;2023-11-19T09:20:19;17.90;99.90
36292;DHT22;22327;51.208;6.418;2023-11-19T09:23:20;17.80;99.90
36292;DHT22;22327;51.208;6.418;2023-11-19T09:26:20;17.70;99.90
36292;DHT22;22327;51.208;6.418;2023-11-19T09:29:21;17.50;99.90
36292;DHT22;22327;51.208;6.418;2023-11-19T09:32:22;17.30;99.90
36292;DHT22;22327;51.208;6.418;2023-11-19T09:35:22;17.20;99.90
36292;DHT22;22327;51.208;6.418;2023-11-19T09:38:23;17.10;99.90
36292;DHT22;22327;51.208;6.418;2023-11-19T09:41:24;17.10;99.90
36292;DHT22;22327;51.208;6.418;2023-11-19T09:44:25;17.10;99.90
36292;DHT22;22327;51.208;6.418;2023-11-19T09:47:26;17.00;99.90
36292;DHT22;22327;51.208;6.418;2023-11-19T09:50:28;17.00;99.90
36292;DHT22;22327;51.208;6.418;2023-11-19T09:53:29;16.90;99.90
36292;DHT22;22327;51.208;6.418;2023-11-19T09:56:30;16.90;99.90
36292;DHT22;22327;51.208;6.418;2023-11-19T09:59:31;17.00;99.90
36292;DHT22;22327;51.208;6.418;2023-11-19T10:02:33;17.00;99.90
36292;DHT22;22327;51.208;6.418;2023-11-19T10:05:36;17.00;99.90
36292;DHT22;22327;51.208;6.418;2023-11-19T10:08:40;17.10;99.90
36292;DHT22;22327;51.208;6.418;2023-11-19T10:11:40;17.10;99.90
36292;DHT22;22327;51.208;6.418;2023-11-19T10:14:41;17.10;99.90
36292;DHT22;22327;51.208;6.418;2023-11-19T10:17:43;17.10;99.90
36292;DHT22;22327;51.208;6.418;2023-11-19T10:20:43;17.20;99.90
36292;DHT22;22327;51.208;6.418;2023-11-19T10:23:52;17.10;99.90
36292;DHT22;22327;51.208;6.418;2023-11-19T10:26:53;17.20;99.90
36292;DHT22;22327;51.208;6.418;2023-11-19T10:29:59;17.30;99.90
36292;DHT22;22327;51.208;6.418;2023-11-19T10:33:10;17.20;99.90
36292;DHT22;22327;51.208;6.418;2023-11-19T10:36:12;17.20;99.90
36292;DHT22;22327;51.208;6.418;2023-11-19T10:39:13;17.30;99.90
36292;DHT22;22327;51.208;6.418;2023-11-19T10:42:16;17.30;99.90
36292;DHT22;22327;51.208;6.418;2023-11-19T10:45:23;17.40;99.90
36292;DHT22;22327;51.208;6.418;2023-11-19T10:48:24;17.40;99.90
36292;DHT22;22327;51.208;6.418;2023-11-19T10:51:26;17.40;99.90
36292;DHT22;22327;51.208;6.418;2023-11-19T10:54:26;17.40;99.90
36292;DHT22;22327;51.208;6.418;2023-11-19T10:57:30;17.40;99.90
36292;DHT22;22327;51.208;6.418;2023-11-19T11:03:40;17.20;99.90
36292;DHT22;22327;51.208;6.418;2023-11-19T11:06:41;17.30;99.90
36292;DHT22;22327;51.208;6.418;2023-11-19T11:09:42;17.30;99.90
36292;DHT22;22327;51.208;6.418;2023-11-19T11:12:45;17.30;99.90
36292;DHT22;22327;51.208;6.418;2023-11-19T11:15:47;17.20;99.90
36292;DHT22;22327;51.208;6.418;2023-11-19T11:18:49;17.30;99.90
36292;DHT22;22327;51.208;6.418;2023-11-19T11:21:52;17.40;99.90
36292;DHT22;22327;51.208;6.418;2023-11-19T11:25:02;17.30;99.90
36292;DHT22;22327;51.208;6.418;2023-11-19T11:28:34;17.40;99.90
36292;DHT22;22327;51.208;6.418;2023-11-19T11:38:13;17.50;99.90
36292;DHT22;22327;51.208;6.418;2023-11-19T11:41:19;17.60;99.90
36292;DHT22;22327;51.208;6.418;2023-11-19T11:44:57;17.80;99.90
36292;DHT22;22327;51.208;6.418;2023-11-19T11:50:58;17.90;99.90
36292;DHT22;22327;51.208;6.418;2023-11-19T11:53:59;17.80;99.90
36292;DHT22;22327;51.208;6.418;2023-11-19T11:57:06;17.70;99.90
36292;DHT22;22327;51.208;6.418;2023-11-19T12:00:12;17.60;99.90
36292;DHT22;22327;51.208;6.418;2023-11-19T12:03:22;17.60;99.90
36292;DHT22;22327;51.208;6.418;2023-11-19T12:06:23;17.50;99.90
36292;DHT22;22327;51.208;6.418;2023-11-19T12:09:23;17.40;99.90
36292;DHT22;22327;51.208;6.418;2023-11-19T12:12:27;17.50;99.90
36292;DHT22;22327;51.208;6.418;2023-11-19T12:15:28;17.60;99.90
36292;DHT22;22327;51.208;6.418;2023-11-19T12:18:29;17.70;99.90
36292;DHT22;22327;51.208;6.418;2023-11-19T12:21:31;17.80;99.90
36292;DHT22;22327;51.208;6.418;2023-11-19T12:24:32;17.70;99.90
36292;DHT22;22327;51.208;6.418;2023-11-19T12:27:33;17.70;99.90
36292;DHT22;22327;51.208;6.418;2023-11-19T12:30:36;17.40;99.90
36292;DHT22;22327;51.208;6.418;2023-11-19T12:33:37;17.00;99.90
36292;DHT22;22327;51.208;6.418;2023-11-19T12:36:38;16.90;99.90
36292;DHT22;22327;51.208;6.418;2023-11-19T12:39:38;16.80;99.90
36292;DHT22;22327;51.208;6.418;2023-11-19T12:42:40;16.90;99.90
36292;DHT22;22327;51.208;6.418;2023-11-19T12:45:41;16.90;99.90
36292;DHT22;22327;51.208;6.418;2023-11-19T12:48:42;16.90;99.90
36292;DHT22;22327;51.208;6.418;2023-11-19T12:51:42;17.00;99.90
36292;DHT22;22327;51.208;6.418;2023-11-19T12:54:43;17.00;99.90
36292;DHT22;22327;51.208;6.418;2023-11-19T12:57:43;17.00;99.90
36292;DHT22;22327;51.208;6.418;2023-11-19T13:00:44;16.90;99.90
36292;DHT22;22327;51.208;6.418;2023-11-19T13:03:45;17.00;99.90
36292;DHT22;22327;51.208;6.418;2023-11-19T13:06:46;17.00;99.90
36292;DHT22;22327;51.208;6.418;2023-11-19T13:09:47;16.90;99.90
36292;DHT22;22327;51.208;6.418;2023-11-19T13:13:05;17.00;99.90
36292;DHT22;22327;51.208;6.418;2023-11-19T13:16:06;17.10;99.90
36292;DHT22;22327;51.208;6.418;2023-11-19T13:19:07;17.10;99.90
36292;DHT22;22327;51.208;6.418;2023-11-19T13:22:09;17.10;99.90
36292;DHT22;22327;51.208;6.418;2023-11-19T13:25:09;17.20;99.90
36292;DHT22;22327;51.208;6.418;2023-11-19T13:28:10;17.10;99.90
36292;DHT22;22327;51.208;6.418;2023-11-19T13:31:10;17.10;99.90
36292;DHT22;22327;51.208;6.418;2023-11-19T13:34:11;17.10;99.90
36292;DHT22;22327;51.208;6.418;2023-11-19T13:37:11;17.20;99.90
36292;DHT22;22327;51.208;6.418;2023-11-19T13:40:12;17.20;99.90
36292;DHT22;22327;51.208;6.418;2023-11-19T13:43:15;17.30;99.90
36292;DHT22;22327;51.208;6.418;2023-11-19T13:46:16;17.30;99.90
36292;DHT22;22327;51.208;6.418;2023-11-19T13:49:17;17.40;99.90
36292;DHT22;22327;51.208;6.418;2023-11-19T13:52:17;17.40;99.90
36292;DHT22;22327;51.208;6.418;2023-11-19T13:55:18;17.40;99.90
36292;DHT22;22327;51.208;6.418;2023-11-19T13:58:18;17.30;99.90
36292;DHT22;22327;51.208;6.418;2023-11-19T14:01:19;17.30;99.90
36292;DHT22;22327;51.208;6.418;2023-11-19T14:04:19;17.30;99.90
36292;DHT22;22327;51.208;6.418;2023-11-19T14:07:20;17.10;99.90
36292;DHT22;22327;51.208;6.418;2023-11-19T14:10:20;17.00;99.90
36292;DHT22;22327;51.208;6.418;2023-11-19T14:13:21;16.90;99.90
36292;DHT22;22327;51.208;6.418;2023-11-19T14:16:22;16.70;99.90
36292;DHT22;22327;51.208;6.418;2023-11-19T14:19:22;16.40;99.90
36292;DHT22;22327;51.208;6.418;2023-11-19T14:22:23;16.20;99.90
36292;DHT22;22327;51.208;6.418;2023-11-19T14:25:23;16.10;99.90
36292;DHT22;22327;51.208;6.418;2023-11-19T14:28:24;16.60;99.90
36292;DHT22;22327;51.208;6.418;2023-11-19T14:31:28;17.50;99.90
36292;DHT22;22327;51.208;6.418;2023-11-19T14:34:32;18.20;99.90
36292;DHT22;22327;51.208;6.418;2023-11-19T14:37:33;18.70;99.90
36292;DHT22;22327;51.208;6.418;2023-11-19T14:40:33;18.70;99.90
36292;DHT22;22327;51.208;6.418;2023-11-19T14:43:34;18.10;99.90
36292;DHT22;22327;51.208;6.418;2023-11-19T14:46:34;17.50;99.90
36292;DHT22;22327;51.208;6.418;2023-11-19T14:49:35;17.00;99.90
36292;DHT22;22327;51.208;6.418;2023-11-19T14:52:37;16.60;99.90
36292;DHT22;22327;51.208;6.418;2023-11-19T14:55:37;16.40;99.90
36292;DHT22;22327;51.208;6.418;2023-11-19T14:58:38;16.10;99.90
36292;DHT22;22327;51.208;6.418;2023-11-19T15:01:39;16.00;99.90
36292;DHT22;22327;51.208;6.418;2023-11-19T15:04:40;15.80;99.90
36292;DHT22;22327;51.208;6.418;2023-11-19T15:07:42;15.70;99.90
36292;DHT22;22327;51.208;6.418;2023-11-19T15:10:43;15.60;99.90
36292;DHT22;22327;51.208;6.418;2023-11-19T15:13:45;15.60;99.90
36292;DHT22;22327;51.208;6.418;2023-11-19T15:16:46;15.60;99.90
36292;DHT22;22327;51.208;6.418;2023-11-19T15:19:47;15.70;99.90
36292;DHT22;22327;51.208;6.418;2023-11-19T15:22:48;15.70;99.90
36292;DHT22;22327;51.208;6.418;2023-11-19T15:25:48;15.70;99.90
36292;DHT22;22327;51.208;6.418;2023-11-19T15:28:49;15.70;99.90
36292;DHT22;22327;51.208;6.418;2023-11-19T15:31:50;15.70;99.90
36292;DHT22;22327;51.208;6.418;2023-11-19T15:34:50;15.60;99.90
36292;DHT22;22327;51.208;6.418;2023-11-19T15:37:51;15.70;99.90
36292;DHT22;22327;51.208;6.418;2023-11-19T15:40:52;15.70;99.90
36292;DHT22;22327;51.208;6.418;2023-11-19T15:43:53;15.80;99.90
36292;DHT22;22327;51.208;6.418;2023-11-19T15:46:55;15.80;99.90
36292;DHT22;22327;51.208;6.418;2023-11-19T15:49:55;15.90;99.90
36292;DHT22;22327;51.208;6.418;2023-11-19T15:52:56;15.90;99.90
36292;DHT22;22327;51.208;6.418;2023-11-19T15:55:57;15.70;99.90
36292;DHT22;22327;51.208;6.418;2023-11-19T15:58:58;15.50;99.90
36292;DHT22;22327;51.208;6.418;2023-11-19T16:01:59;15.50;99.90
36292;DHT22;22327;51.208;6.418;2023-11-19T16:05:00;15.30;99.90
36292;DHT22;22327;51.208;6.418;2023-11-19T16:08:00;15.20;99.90
36292;DHT22;22327;51.208;6.418;2023-11-19T16:11:01;15.10;99.90
36292;DHT22;22327;51.208;6.418;2023-11-19T16:14:01;15.10;99.90
36292;DHT22;22327;51.208;6.418;2023-11-19T16:17:02;15.10;99.90
36292;DHT22;22327;51.208;6.418;2023-11-19T16:20:03;15.00;99.90
36292;DHT22;22327;51.208;6.418;2023-11-19T16:23:07;15.00;99.90
36292;DHT22;22327;51.208;6.418;2023-11-19T16:26:07;14.90;99.90
36292;DHT22;22327;51.208;6.418;2023-11-19T16:29:08;15.00;99.90
36292;DHT22;22327;51.208;6.418;2023-11-19T16:32:08;15.10;99.90
36292;DHT22;22327;51.208;6.418;2023-11-19T16:35:09;15.10;99.90
36292;DHT22;22327;51.208;6.418;2023-11-19T16:38:10;15.10;99.90
36292;DHT22;22327;51.208;6.418;2023-11-19T16:41:11;15.10;99.90
36292;DHT22;22327;51.208;6.418;2023-11-19T16:44:14;15.00;99.90
36292;DHT22;22327;51.208;6.418;2023-11-19T16:47:14;14.80;99.90
36292;DHT22;22327;51.208;6.418;2023-11-19T16:50:15;14.80;99.90
36292;DHT22;22327;51.208;6.418;2023-11-19T16:53:19;14.60;99.90
36292;DHT22;22327;51.208;6.418;2023-11-19T16:56:19;14.50;99.90
36292;DHT22;22327;51.208;6.418;2023-11-19T16:59:20;14.40;99.90
36292;DHT22;22327;51.208;6.418;2023-11-19T17:02:25;14.40;99.90
36292;DHT22;22327;51.208;6.418;2023-11-19T17:05:25;14.40;99.90
36292;DHT22;22327;51.208;6.418;2023-11-19T17:08:26;14.50;99.90
36292;DHT22;22327;51.208;6.418;2023-11-19T17:11:26;14.50;99.90
36292;DHT22;22327;51.208;6.418;2023-11-19T17:14:27;14.40;99.90
36292;DHT22;22327;51.208;6.418;2023-11-19T17:17:27;14.50;99.90
36292;DHT22;22327;51.208;6.418;2023-11-19T17:20:33;14.50;99.90
36292;DHT22;22327;51.208;6.418;2023-11-19T17:23:37;14.60;99.90
36292;DHT22;22327;51.208;6.418;2023-11-19T17:26:39;14.70;99.90
36292;DHT22;22327;51.208;6.418;2023-11-19T17:29:40;14.70;99.90
36292;DHT22;22327;51.208;6.418;2023-11-19T17:32:41;14.70;99.90
36292;DHT22;22327;51.208;6.418;2023-11-19T17:35:41;14.80;99.90
36292;DHT22;22327;51.208;6.418;2023-11-19T17:38:42;14.80;99.90
36292;DHT22;22327;51.208;6.418;2023-11-19T17:41:42;14.90;99.90
36292;DHT22;22327;51.208;6.418;2023-11-19T17:44:43;14.90;99.90
36292;DHT22;22327;51.208;6.418;2023-11-19T17:47:44;14.90;99.90
36292;DHT22;22327;51.208;6.418;2023-11-19T17:50:44;15.00;99.90
36292;DHT22;22327;51.208;6.418;2023-11-19T17:53:45;15.00;99.90
36292;DHT22;22327;51.208;6.418;2023-11-19T17:56:46;15.00;99.90
36292;DHT22;22327;51.208;6.418;2023-11-19T17:59:46;15.00;99.90
36292;DHT22;22327;51.208;6.418;2023-11-19T18:02:50;15.10;99.90
36292;DHT22;22327;51.208;6.418;2023-11-19T18:05:52;15.10;99.90
36292;DHT22;22327;51.208;6.418;2023-11-19T18:08:53;15.10;99.90
36292;DHT22;22327;51.208;6.418;2023-11-19T18:11:53;15.10;99.90
36292;DHT22;22327;51.208;6.418;2023-11-19T18:14:54;15.10;99.90
36292;DHT22;22327;51.208;6.418;2023-11-19T18:17:54;15.00;99.90
36292;DHT22;22327;51.208;6.418;2023-11-19T18:20:56;14.90;99.90
36292;DHT22;22327;51.208;6.418;2023-11-19T18:23:56;14.70;99.90
36292;DHT22;22327;51.208;6.418;2023-11-19T18:26:57;14.70;99.90
36292;DHT22;22327;51.208;6.418;2023-11-19T18:29:57;14.70;99.90
36292;DHT22;22327;51.208;6.418;2023-11-19T18:32:58;14.70;99.90
36292;DHT22;22327;51.208;6.418;2023-11-19T18:36:01;14.70;99.90
36292;DHT22;22327;51.208;6.418;2023-11-19T18:39:05;14.70;99.90
36292;DHT22;22327;51.208;6.418;2023-11-19T18:42:09;14.80;99.90
36292;DHT22;22327;51.208;6.418;2023-11-19T18:45:10;14.70;99.90
36292;DHT22;22327;51.208;6.418;2023-11-19T18:48:10;14.70;99.90
36292;DHT22;22327;51.208;6.418;2023-11-19T18:51:12;14.60;99.90
36292;DHT22;22327;51.208;6.418;2023-11-19T18:54:14;14.60;99.90
36292;DHT22;22327;51.208;6.418;2023-11-19T18:57:16;14.60;99.90
36292;DHT22;22327;51.208;6.418;2023-11-19T19:00:18;14.60;99.90
36292;DHT22;22327;51.208;6.418;2023-11-19T19:03:18;14.60;99.90
36292;DHT22;22327;51.208;6.418;2023-11-19T19:06:22;14.70;99.90
36292;DHT22;22327;51.208;6.418;2023-11-19T19:09:22;14.70;99.90
36292;DHT22;22327;51.208;6.418;2023-11-19T19:12:23;14.70;99.90
36292;DHT22;22327;51.208;6.418;2023-11-19T19:15:23;14.60;99.90
36292;DHT22;22327;51.208;6.418;2023-11-19T19:18:26;14.60;99.90